createdAt,value
2019-02-19T00:14:37.941Z,42.85
2019-02-19T00:15:38.373Z,42.96
2019-02-19T00:16:59.866Z,42.73
2019-02-19T00:18:00.346Z,43.06
2019-02-19T00:53:53.861Z,43.90
2019-02-19T00:54:54.308Z,44.00
2019-02-19T00:55:54.742Z,43.47
2019-02-19T00:56:55.175Z,43.38
2019-02-19T00:57:56.267Z,43.69
2019-02-19T01:41:59.083Z,45.33
2019-02-19T01:42:59.505Z,45.64
2019-02-19T01:43:59.950Z,45.25
2019-02-19T01:45:00.381Z,45.64
2019-02-19T01:46:00.879Z,45.15
2019-02-19T01:47:01.302Z,46.15
2019-02-19T01:48:01.739Z,45.76
2019-02-19T01:49:02.191Z,45.65
2019-02-19T01:50:02.632Z,45.56
2019-02-19T01:51:03.065Z,45.56
2019-02-19T01:52:03.494Z,45.65
2019-02-19T01:53:03.933Z,45.53
2019-02-19T01:54:04.402Z,45.84
2019-02-19T01:55:04.833Z,46.07
2019-02-19T01:56:05.259Z,46.27
2019-02-19T01:57:05.697Z,46.07
2019-02-19T01:58:07.243Z,45.97
2019-02-19T01:59:07.707Z,46.04
2019-02-19T02:00:08.179Z,46.56
2019-02-19T02:01:08.618Z,46.04
2019-02-19T02:02:09.115Z,46.12
2019-02-19T02:03:09.557Z,46.25
2019-02-19T02:04:10.085Z,46.12
2019-02-19T02:05:10.529Z,46.53
2019-02-19T02:06:10.995Z,46.53
2019-02-19T02:07:11.426Z,46.64
2019-02-19T02:08:12.943Z,46.53
2019-02-19T02:09:13.410Z,46.64
2019-02-19T02:11:30.228Z,46.44
2019-02-19T03:32:57.589Z,49.81
2019-02-19T03:36:28.750Z,49.27
2019-02-19T03:37:58.079Z,49.38
2019-02-19T03:38:58.527Z,50.60
2019-02-19T03:40:25.121Z,50.52
2019-02-19T03:41:25.557Z,50.63
2019-02-19T04:12:41.800Z,52.97
2019-02-19T04:13:42.236Z,53.39
2019-02-19T04:14:43.765Z,53.08
2019-02-19T04:15:44.272Z,53.49
2019-02-19T04:16:45.726Z,53.61
2019-02-19T04:17:46.160Z,53.18
2019-02-19T04:18:46.591Z,54.23
2019-02-19T04:21:03.442Z,54.23
2019-02-19T04:23:41.943Z,53.51
2019-02-19T04:25:11.083Z,53.00
2019-02-19T04:26:11.525Z,53.10
2019-02-19T04:29:38.598Z,52.87
2019-02-19T04:31:19.547Z,53.20
2019-02-19T04:32:19.980Z,54.02
2019-02-19T04:33:28.030Z,53.10
2019-02-19T04:34:28.460Z,53.31
2019-02-19T04:36:45.943Z,53.41
2019-02-19T04:37:54.990Z,53.61
2019-02-19T04:38:55.419Z,53.82
2019-02-19T04:58:38.221Z,53.69
2019-02-19T04:59:38.674Z,53.69
2019-02-19T05:00:39.110Z,53.49
2019-02-19T05:01:39.572Z,53.49
2019-02-19T05:02:40.013Z,53.69
2019-02-19T05:49:34.865Z,55.46
2019-02-19T05:50:35.318Z,55.46
2019-02-19T05:51:49.821Z,55.15
2019-02-19T05:52:50.261Z,55.77
2019-02-19T05:53:57.378Z,56.28
2019-02-19T05:54:57.803Z,55.77
2019-02-19T05:57:34.238Z,55.98
2019-02-19T05:58:42.362Z,56.07
2019-02-19T05:59:42.785Z,56.18
2019-02-19T06:00:43.218Z,55.98
2019-02-19T06:02:10.885Z,55.74
2019-02-19T06:03:11.318Z,56.07
2019-02-19T06:04:47.328Z,55.98
2019-02-19T06:05:47.821Z,56.07
2019-02-19T06:06:55.882Z,55.87
2019-02-19T06:07:56.316Z,57.51
2019-02-19T06:10:12.814Z,57.10
2019-02-19T06:11:51.359Z,56.90
2019-02-19T06:12:51.845Z,57.00
2019-02-19T06:13:54.346Z,56.69
2019-02-19T06:14:54.830Z,57.31
2019-02-19T06:17:11.235Z,56.97
2019-02-19T06:18:18.333Z,56.18
2019-02-19T06:19:18.767Z,57.10
2019-02-19T06:20:27.869Z,56.69
2019-02-19T06:21:28.309Z,57.10
2019-02-19T06:22:46.860Z,56.79
2019-02-19T06:23:47.301Z,57.00
2019-02-19T06:25:23.433Z,57.00
2019-02-19T06:26:23.961Z,57.20
2019-02-19T06:27:32.354Z,57.31
2019-02-19T06:28:32.817Z,57.00
2019-02-19T06:29:49.845Z,57.92
2019-02-19T06:30:50.270Z,57.92
2019-02-19T06:31:54.915Z,57.51
2019-02-19T06:32:55.368Z,57.31
2019-02-19T06:33:55.915Z,57.31
2019-02-19T06:34:56.349Z,57.71
2019-02-19T06:35:56.854Z,57.92
2019-02-19T06:36:57.300Z,57.71
2019-02-19T06:50:33.592Z,57.10
2019-02-19T06:51:34.018Z,57.20
2019-02-19T06:52:34.522Z,57.41
2019-02-19T06:53:34.958Z,57.20
2019-02-19T06:54:35.422Z,57.61
2019-02-19T06:55:35.858Z,57.82
2019-02-19T06:56:36.294Z,58.12
2019-02-19T06:57:36.808Z,58.12
2019-02-19T06:58:37.236Z,57.10
2019-02-19T06:59:37.708Z,57.31
2019-02-19T07:00:38.144Z,57.00
2019-02-19T07:01:45.578Z,57.20
2019-02-19T07:02:46.031Z,57.10
2019-02-19T07:03:46.512Z,57.10
2019-02-19T07:04:46.952Z,57.10
2019-02-19T07:05:47.464Z,57.59
2019-02-19T07:06:47.910Z,57.69
2019-02-19T07:07:48.426Z,57.18
2019-02-19T07:08:48.863Z,57.07
2019-02-19T07:09:49.325Z,57.07
2019-02-19T07:10:49.763Z,57.59
2019-02-19T07:11:50.368Z,57.07
2019-02-19T07:12:50.822Z,57.28
2019-02-19T07:13:51.411Z,57.28
2019-02-19T07:14:51.836Z,57.38
2019-02-19T07:15:52.332Z,57.18
2019-02-19T07:16:52.757Z,57.38
2019-02-19T07:17:53.333Z,57.48
2019-02-19T07:18:53.771Z,57.69
2019-02-19T07:19:54.305Z,57.38
2019-02-19T07:20:54.736Z,57.46
2019-02-19T07:21:55.242Z,57.25
2019-02-19T07:22:55.687Z,57.15
2019-02-19T07:24:04.194Z,57.35
2019-02-19T07:25:03.759Z,57.25
2019-02-19T07:26:04.278Z,57.69
2019-02-19T07:27:04.708Z,57.15
2019-02-19T10:03:24.672Z,49.04
2019-02-19T12:01:26.490Z,45.15
2019-02-19T12:02:32.714Z,45.15
2019-02-19T12:05:11.428Z,45.68
2019-02-19T12:06:11.962Z,45.66
2019-02-19T12:07:12.394Z,46.06
2019-02-19T12:08:12.899Z,44.82
2019-02-19T12:09:13.326Z,45.23
2019-02-19T12:10:13.788Z,44.81
2019-02-19T12:11:14.224Z,44.89
2019-02-19T12:12:14.671Z,43.85
2019-02-19T12:13:15.106Z,44.76
2019-02-19T12:14:15.544Z,44.48
2019-02-19T14:17:08.859Z,45.84
2019-02-19T14:18:09.369Z,46.76
2019-02-19T14:19:09.810Z,46.45
2019-02-19T15:19:27.405Z,47.24
2019-02-19T15:21:52.243Z,47.95
2019-02-19T15:23:02.319Z,48.35
2019-02-19T15:24:02.771Z,47.95
2019-02-19T15:25:04.273Z,47.74
2019-02-19T15:26:04.703Z,47.64
2019-02-19T15:27:05.159Z,47.44
2019-02-19T15:28:05.606Z,47.64
2019-02-19T15:29:06.048Z,47.54
2019-02-19T15:30:06.553Z,47.95
2019-02-19T15:31:07.001Z,47.85
2019-02-19T15:32:07.541Z,47.64
2019-02-19T15:33:07.986Z,47.54
2019-02-19T15:36:58.627Z,48.15
2019-02-19T15:37:59.086Z,47.64
2019-02-19T15:38:59.524Z,47.74
2019-02-19T15:39:59.959Z,47.97
2019-02-19T15:41:00.400Z,48.27
2019-02-19T15:42:01.126Z,48.18
2019-02-19T15:43:01.603Z,47.95
2019-02-19T15:44:02.059Z,47.85
2019-02-19T15:45:02.483Z,47.85
2019-02-19T15:46:02.912Z,47.64
2019-02-19T15:47:03.344Z,47.85
2019-02-19T15:48:03.804Z,47.95
2019-02-19T15:49:04.393Z,48.15
2019-02-19T15:50:04.827Z,48.15
2019-02-19T15:51:05.268Z,47.95
2019-02-19T15:52:05.750Z,48.15
2019-02-19T15:53:06.205Z,48.05
2019-02-19T15:54:06.687Z,47.85
2019-02-19T15:55:07.179Z,47.95
2019-02-19T15:56:07.720Z,47.56
2019-02-19T15:57:08.153Z,48.15
2019-02-19T15:58:08.694Z,47.34
2019-02-19T15:59:09.132Z,48.58
2019-02-19T16:00:09.558Z,48.27
2019-02-19T16:01:10.138Z,48.05
2019-02-19T16:02:10.576Z,48.68
2019-02-19T16:03:11.101Z,48.38
2019-02-19T16:04:11.567Z,48.27
2019-02-19T16:05:12.086Z,48.99
2019-02-19T16:06:12.545Z,48.89
2019-02-19T16:07:14.688Z,48.89
2019-02-19T16:08:15.231Z,48.68
2019-02-19T16:09:16.731Z,49.09
2019-02-19T16:10:17.168Z,49.29
2019-02-19T16:11:19.707Z,49.01
2019-02-19T16:12:20.151Z,48.79
2019-02-19T16:13:20.684Z,49.40
2019-02-19T16:14:21.126Z,48.58
2019-02-19T16:15:21.571Z,49.19
2019-02-19T16:16:22.087Z,48.68
2019-02-19T16:17:22.573Z,49.19
2019-02-19T16:18:23.065Z,48.89
2019-02-19T16:19:23.524Z,48.91
2019-02-19T16:20:24.062Z,48.60
2019-02-19T16:21:24.502Z,48.91
2019-02-19T16:22:39.961Z,48.91
2019-02-19T16:23:40.441Z,48.60
2019-02-19T16:24:40.928Z,48.91
2019-02-19T16:25:41.358Z,49.01
2019-02-19T16:26:41.839Z,48.60
2019-02-19T16:27:42.386Z,49.32
2019-02-19T16:28:42.870Z,48.93
2019-02-19T16:29:43.328Z,49.01
2019-02-19T16:30:44.849Z,48.91
2019-02-19T16:31:45.285Z,49.13
2019-02-19T16:32:45.806Z,49.01
2019-02-19T16:33:46.249Z,49.34
2019-02-19T16:34:46.688Z,49.04
2019-02-19T16:35:47.127Z,48.93
2019-02-19T16:36:47.565Z,48.93
2019-02-19T16:37:48.017Z,49.04
2019-02-19T16:38:48.464Z,49.24
2019-02-19T16:39:48.906Z,49.16
2019-02-19T16:40:49.361Z,49.46
2019-02-19T16:41:51.862Z,49.46
2019-02-19T16:42:52.343Z,49.57
2019-02-19T16:43:52.798Z,49.87
2019-02-19T16:44:53.230Z,50.08
2019-02-19T16:45:53.736Z,49.67
2019-02-19T16:46:54.186Z,49.59
2019-02-19T16:47:58.055Z,49.49
2019-02-19T16:48:58.533Z,49.69
2019-02-19T16:50:07.295Z,49.29
2019-02-19T16:51:05.511Z,49.49
2019-02-19T16:52:05.946Z,50.20
2019-02-19T16:53:08.491Z,49.69
2019-02-19T16:54:08.935Z,50.51
2019-02-19T16:55:09.393Z,50.23
2019-02-19T16:56:09.898Z,50.10
2019-02-19T16:57:10.394Z,50.23
2019-02-19T16:58:10.842Z,49.71
2019-02-19T16:59:11.342Z,50.63
2019-02-19T17:00:11.779Z,50.33
2019-02-19T17:01:12.262Z,50.53
2019-02-19T17:02:12.693Z,50.53
2019-02-19T18:55:19.645Z,51.01
2019-02-19T18:56:20.140Z,51.03
2019-02-19T18:57:20.621Z,50.90
2019-02-19T18:58:21.052Z,50.90
2019-02-19T18:59:21.532Z,51.03
2019-02-19T19:00:21.959Z,51.03
2019-02-19T19:01:22.417Z,51.03
2019-02-19T19:02:22.875Z,50.90
2019-02-19T19:03:23.323Z,51.21
2019-02-19T19:04:23.773Z,51.10
2019-02-19T19:05:24.214Z,50.93
2019-02-19T19:06:24.676Z,51.10
2019-02-19T19:07:25.140Z,51.03
2019-02-19T19:08:25.576Z,51.01
2019-02-19T19:09:26.050Z,50.80
2019-02-19T19:10:26.498Z,51.01
2019-02-19T19:11:26.944Z,51.03
2019-02-19T19:12:27.383Z,51.03
2019-02-19T19:13:27.823Z,51.23
2019-02-19T19:14:28.332Z,51.23
2019-02-19T19:15:28.814Z,50.72
2019-02-19T19:16:29.631Z,50.62
2019-02-19T19:17:30.069Z,51.44
2019-02-19T19:18:30.506Z,51.05
2019-02-19T19:19:30.963Z,51.05
2019-02-19T19:20:31.414Z,51.23
2019-02-19T19:21:31.869Z,51.34
2019-02-19T19:22:32.306Z,51.36
2019-02-19T19:23:32.809Z,51.23
2019-02-19T19:24:33.279Z,51.03
2019-02-19T19:25:33.712Z,51.03
2019-02-19T19:26:34.146Z,51.26
2019-02-19T19:27:34.601Z,51.05
2019-02-19T19:28:35.046Z,51.26
2019-02-19T19:29:35.507Z,51.05
2019-02-19T19:30:35.941Z,50.95
2019-02-19T19:31:36.387Z,51.05
2019-02-19T19:32:36.827Z,51.36
2019-02-19T19:33:37.307Z,51.46
2019-02-19T19:34:37.790Z,51.46
2019-02-19T19:36:07.923Z,50.64
2019-02-19T19:37:08.955Z,51.79
2019-02-19T19:38:09.480Z,51.26
2019-02-19T19:39:19.803Z,51.69
2019-02-19T19:40:20.475Z,51.28
2019-02-19T19:54:49.257Z,52.10
2019-02-19T19:58:03.786Z,51.69
2019-02-19T20:01:57.763Z,51.90
2019-02-19T20:02:58.206Z,51.48
2019-02-19T20:06:37.648Z,51.69
2019-02-19T20:07:38.092Z,52.00
2019-02-19T20:08:54.350Z,51.59
2019-02-19T20:09:54.914Z,51.72
2019-02-19T20:13:38.479Z,51.92
2019-02-19T20:14:38.932Z,51.72
2019-02-19T20:21:26.260Z,51.53
2019-02-19T20:22:24.242Z,51.51
2019-02-19T20:23:41.337Z,51.41
2019-02-19T20:24:41.774Z,51.53
2019-02-19T20:25:46.271Z,51.51
2019-02-19T20:26:46.707Z,51.31
2019-02-19T20:28:15.799Z,51.43
2019-02-19T20:29:16.230Z,51.23
2019-02-19T20:32:36.359Z,51.53
2019-02-19T20:33:36.795Z,51.43
2019-02-19T20:34:39.289Z,51.23
2019-02-19T20:35:39.741Z,51.33
2019-02-19T20:37:02.242Z,51.33
2019-02-19T20:38:02.694Z,51.33
2019-02-19T20:58:45.259Z,51.45
2019-02-19T20:59:45.699Z,51.25
2019-02-19T21:01:22.760Z,52.17
2019-02-19T21:02:23.194Z,52.30
2019-02-19T21:06:06.428Z,52.40
2019-02-19T21:07:06.857Z,52.71
2019-02-19T21:11:03.370Z,52.30
2019-02-19T21:12:03.811Z,52.92
2019-02-19T21:13:12.833Z,52.92
2019-02-19T21:14:13.273Z,52.40
2019-02-19T21:19:37.862Z,52.51
2019-02-19T21:20:38.305Z,52.64
2019-02-19T21:23:51.333Z,53.12
2019-02-19T21:24:51.759Z,53.02
2019-02-19T21:25:56.369Z,53.12
2019-02-19T21:26:56.804Z,52.61
2019-02-19T21:30:48.037Z,52.51
2019-02-19T21:37:25.807Z,52.53
2019-02-19T21:38:26.367Z,52.51
2019-02-19T21:39:26.796Z,52.84
2019-02-19T21:40:28.329Z,52.81
2019-02-19T21:41:28.799Z,52.64
2019-02-19T21:42:29.365Z,52.81
2019-02-19T21:43:29.811Z,52.81
2019-02-19T21:44:30.405Z,53.25
2019-02-19T21:45:30.837Z,53.02
2019-02-19T21:46:31.279Z,53.05
2019-02-19T21:47:31.754Z,53.05
2019-02-19T21:48:32.191Z,53.05
2019-02-19T21:49:32.691Z,52.84
2019-02-19T21:50:33.136Z,52.43
2019-02-19T21:51:33.823Z,52.94
2019-02-19T21:52:34.253Z,53.05
2019-02-19T21:53:35.793Z,53.15
2019-02-19T21:54:36.227Z,52.84
2019-02-19T21:55:36.836Z,52.84
2019-02-19T21:56:37.280Z,52.84
2019-02-19T21:57:37.868Z,52.94
2019-02-19T21:58:38.298Z,52.84
2019-02-19T21:59:45.571Z,52.64
2019-02-19T22:00:46.011Z,52.64
2019-02-19T22:01:46.469Z,52.33
2019-02-19T22:02:47.014Z,52.84
2019-02-19T22:03:47.446Z,52.53
2019-02-19T22:05:02.595Z,52.94
2019-02-19T22:06:03.044Z,52.94
2019-02-19T22:07:10.594Z,52.73
2019-02-19T22:08:11.030Z,52.84
2019-02-19T22:09:11.637Z,52.33
2019-02-19T22:10:12.099Z,52.64
2019-02-19T22:11:12.584Z,52.84
2019-02-19T22:12:13.024Z,52.56
2019-02-19T22:13:13.572Z,53.28
2019-02-19T22:14:14.003Z,53.25
2019-02-19T22:15:14.503Z,53.17
2019-02-19T22:16:14.955Z,53.07
2019-02-19T22:17:15.549Z,53.38
2019-02-19T22:18:15.987Z,53.07
2019-02-19T22:19:16.581Z,53.58
2019-02-19T22:20:17.035Z,53.58
2019-02-19T22:21:17.651Z,53.38
2019-02-19T22:22:18.176Z,53.28
2019-02-19T22:24:55.941Z,52.84
2019-02-19T22:34:14.654Z,53.05
2019-02-19T22:35:15.096Z,52.84
2019-02-19T22:36:15.535Z,52.73
2019-02-19T22:37:16.014Z,52.12
2019-02-19T22:38:16.454Z,52.33
2019-02-19T22:39:16.905Z,52.71
2019-02-19T22:40:17.350Z,52.33
2019-02-19T22:41:17.798Z,52.43
2019-02-19T22:42:18.247Z,52.84
2019-02-19T22:43:18.690Z,52.64
2019-02-19T22:44:19.134Z,53.05
2019-02-19T22:45:19.572Z,52.53
2019-02-19T22:46:20.000Z,53.48
2019-02-19T22:47:20.472Z,53.58
2019-02-19T22:48:20.934Z,53.17
2019-02-19T22:49:21.411Z,53.28
2019-02-19T22:50:21.840Z,53.35
2019-02-19T22:51:22.281Z,53.28
2019-02-19T22:52:22.761Z,53.28
2019-02-19T22:53:23.197Z,53.25
2019-02-19T22:54:23.626Z,53.28
2019-02-19T22:55:24.117Z,53.07
2019-02-19T22:56:24.577Z,53.07
2019-02-19T22:57:25.039Z,53.07
2019-02-19T22:58:25.471Z,53.28
2019-02-19T22:59:25.910Z,53.28
2019-02-19T23:00:26.340Z,53.28
2019-02-19T23:01:26.795Z,53.28
2019-02-19T23:02:27.290Z,53.28
2019-02-19T23:03:27.721Z,53.48
2019-02-19T23:04:28.274Z,53.28
2019-02-19T23:05:28.724Z,53.48
2019-02-19T23:06:29.160Z,53.48
2019-02-19T23:07:29.749Z,53.48
2019-02-19T23:08:30.174Z,53.17
2019-02-19T23:09:30.611Z,53.48
2019-02-19T23:10:31.050Z,53.28
2019-02-19T23:11:31.496Z,53.17
2019-02-19T23:12:31.961Z,53.17
2019-02-19T23:13:32.404Z,53.28
2019-02-19T23:14:32.838Z,53.28
2019-02-19T23:15:33.271Z,53.28
2019-02-19T23:16:33.770Z,53.07
2019-02-19T23:17:34.223Z,53.07
2019-02-19T23:18:34.654Z,53.28
2019-02-19T23:19:35.086Z,53.28
2019-02-19T23:20:35.521Z,53.28
2019-02-19T23:21:35.970Z,53.38
2019-02-19T23:22:36.415Z,53.41
2019-02-19T23:23:36.843Z,53.48
2019-02-19T23:24:37.291Z,53.48
2019-02-19T23:25:37.733Z,53.48
2019-02-19T23:26:38.225Z,53.28
2019-02-19T23:27:38.689Z,53.50
2019-02-19T23:28:39.159Z,53.09
2019-02-19T23:29:39.597Z,53.07
2019-02-19T23:30:40.147Z,52.99
2019-02-19T23:31:40.581Z,53.30
2019-02-19T23:32:41.060Z,53.09
2019-02-19T23:33:41.487Z,52.89
2019-02-19T23:34:41.965Z,53.20
2019-02-19T23:35:42.392Z,53.30
2019-02-19T23:36:42.902Z,53.20
2019-02-19T23:37:43.391Z,53.41
2019-02-19T23:38:43.835Z,52.78
2019-02-19T23:39:44.283Z,53.50
2019-02-19T23:40:44.769Z,52.89
2019-02-19T23:41:45.201Z,52.89
2019-02-19T23:42:45.738Z,52.89
2019-02-19T23:43:46.177Z,53.09
2019-02-19T23:44:46.646Z,52.89
2019-02-19T23:45:47.084Z,53.30
2019-02-19T23:46:49.624Z,53.50
2019-02-19T23:47:50.096Z,52.99
2019-02-19T23:48:50.568Z,53.41
2019-02-19T23:49:51.008Z,52.89
2019-02-19T23:50:51.501Z,53.41
2019-02-19T23:51:52.780Z,52.99
2019-02-19T23:52:53.282Z,53.41
2019-02-19T23:53:53.718Z,53.20
2019-02-19T23:54:54.189Z,53.09
2019-02-19T23:55:54.621Z,53.20
2019-02-19T23:56:56.149Z,52.78
2019-02-19T23:57:56.596Z,52.99
2019-02-19T23:59:04.063Z,53.30
